sensor_id;sensor_type;location;lat;lon;timestamp;temperature;humidity
2387;DHT22;49473;50.772;8.768;2023-08-06T00:00:37;15.50;99.90
2387;DHT22;49473;50.772;8.768;2023-08-06T00:03:04;15.50;99.90
2387;DHT22;49473;50.772;8.768;2023-08-06T00:05:31;15.50;99.90
2387;DHT22;49473;50.772;8.768;2023-08-06T00:07:59;15.40;99.90
2387;DHT22;49473;50.772;8.768;2023-08-06T00:10:26;15.40;99.90
2387;DHT22;49473;50.772;8.768;2023-08-06T00:12:53;15.40;99.90
2387;DHT22;49473;50.772;8.768;2023-08-06T00:15:19;15.30;99.90
2387;DHT22;49473;50.772;8.768;2023-08-06T00:17:46;15.30;99.90
2387;DHT22;49473;50.772;8.768;2023-08-06T00:20:13;15.40;99.90
2387;DHT22;49473;50.772;8.768;2023-08-06T00:22:40;15.30;99.90
2387;DHT22;49473;50.772;8.768;2023-08-06T00:25:08;15.20;99.90
2387;DHT22;49473;50.772;8.768;2023-08-06T00:27:35;15.30;99.90
2387;DHT22;49473;50.772;8.768;2023-08-06T00:30:03;15.40;99.90
2387;DHT22;49473;50.772;8.768;2023-08-06T00:32:30;15.40;99.90
2387;DHT22;49473;50.772;8.768;2023-08-06T00:34:56;15.40;99.90
2387;DHT22;49473;50.772;8.768;2023-08-06T00:37:23;15.40;99.90
2387;DHT22;49473;50.772;8.768;2023-08-06T00:39:50;15.30;99.90
2387;DHT22;49473;50.772;8.768;2023-08-06T00:42:18;15.40;99.90
2387;DHT22;49473;50.772;8.768;2023-08-06T00:44:46;15.50;99.90
2387;DHT22;49473;50.772;8.768;2023-08-06T00:47:13;15.40;99.90
2387;DHT22;49473;50.772;8.768;2023-08-06T00:49:40;15.40;99.90
2387;DHT22;49473;50.772;8.768;2023-08-06T00:52:08;15.50;99.90
2387;DHT22;49473;50.772;8.768;2023-08-06T00:54:35;15.50;99.90
2387;DHT22;49473;50.772;8.768;2023-08-06T00:57:03;15.50;99.90
2387;DHT22;49473;50.772;8.768;2023-08-06T00:59:32;15.50;99.90
2387;DHT22;49473;50.772;8.768;2023-08-06T01:01:59;15.40;99.90
2387;DHT22;49473;50.772;8.768;2023-08-06T01:04:26;15.40;99.90
2387;DHT22;49473;50.772;8.768;2023-08-06T01:07:02;15.40;99.90
2387;DHT22;49473;50.772;8.768;2023-08-06T01:09:37;15.40;99.90
2387;DHT22;49473;50.772;8.768;2023-08-06T01:12:12;15.40;99.90
2387;DHT22;49473;50.772;8.768;2023-08-06T01:14:48;15.40;99.90
2387;DHT22;49473;50.772;8.768;2023-08-06T01:17:19;15.40;99.90
2387;DHT22;49473;50.772;8.768;2023-08-06T01:19:46;15.30;99.90
2387;DHT22;49473;50.772;8.768;2023-08-06T01:22:14;15.30;99.90
2387;DHT22;49473;50.772;8.768;2023-08-06T01:24:45;15.20;99.90
2387;DHT22;49473;50.772;8.768;2023-08-06T01:27:17;15.20;99.90
2387;DHT22;49473;50.772;8.768;2023-08-06T01:29:49;15.10;99.90
2387;DHT22;49473;50.772;8.768;2023-08-06T01:32:21;15.10;99.90
2387;DHT22;49473;50.772;8.768;2023-08-06T01:34:49;15.10;99.90
2387;DHT22;49473;50.772;8.768;2023-08-06T01:37:18;15.10;99.90
2387;DHT22;49473;50.772;8.768;2023-08-06T01:39:44;15.00;99.90
2387;DHT22;49473;50.772;8.768;2023-08-06T01:42:11;15.00;99.90
2387;DHT22;49473;50.772;8.768;2023-08-06T01:44:38;14.90;99.90
2387;DHT22;49473;50.772;8.768;2023-08-06T01:47:05;14.80;99.90
2387;DHT22;49473;50.772;8.768;2023-08-06T01:49:32;14.80;99.90
2387;DHT22;49473;50.772;8.768;2023-08-06T01:51:59;14.70;99.90
2387;DHT22;49473;50.772;8.768;2023-08-06T01:54:27;14.60;99.90
2387;DHT22;49473;50.772;8.768;2023-08-06T01:56:54;14.50;99.90
2387;DHT22;49473;50.772;8.768;2023-08-06T01:59:21;14.50;99.90
2387;DHT22;49473;50.772;8.768;2023-08-06T02:01:48;14.50;99.90
2387;DHT22;49473;50.772;8.768;2023-08-06T02:04:14;14.50;99.90
2387;DHT22;49473;50.772;8.768;2023-08-06T02:06:41;14.50;99.90
2387;DHT22;49473;50.772;8.768;2023-08-06T02:09:08;14.50;99.90
2387;DHT22;49473;50.772;8.768;2023-08-06T02:11:36;14.40;99.90
2387;DHT22;49473;50.772;8.768;2023-08-06T02:14:03;14.40;99.90
2387;DHT22;49473;50.772;8.768;2023-08-06T02:16:30;14.40;99.90
2387;DHT22;49473;50.772;8.768;2023-08-06T02:18:56;14.40;99.90
2387;DHT22;49473;50.772;8.768;2023-08-06T02:21:23;14.40;99.90
2387;DHT22;49473;50.772;8.768;2023-08-06T02:23:50;14.40;99.90
2387;DHT22;49473;50.772;8.768;2023-08-06T02:26:17;14.40;99.90
2387;DHT22;49473;50.772;8.768;2023-08-06T02:28:45;14.30;99.90
2387;DHT22;49473;50.772;8.768;2023-08-06T02:31:12;14.40;99.90
2387;DHT22;49473;50.772;8.768;2023-08-06T02:33:38;14.40;99.90
2387;DHT22;49473;50.772;8.768;2023-08-06T02:36:05;14.40;99.90
2387;DHT22;49473;50.772;8.768;2023-08-06T02:38:33;14.40;99.90
2387;DHT22;49473;50.772;8.768;2023-08-06T02:41:02;14.40;99.90
2387;DHT22;49473;50.772;8.768;2023-08-06T02:43:29;14.40;99.90
2387;DHT22;49473;50.772;8.768;2023-08-06T02:45:58;14.50;99.90
2387;DHT22;49473;50.772;8.768;2023-08-06T02:48:25;14.50;99.90
2387;DHT22;49473;50.772;8.768;2023-08-06T02:50:52;14.60;99.90
2387;DHT22;49473;50.772;8.768;2023-08-06T02:53:19;14.60;99.90
2387;DHT22;49473;50.772;8.768;2023-08-06T02:55:47;14.60;99.90
2387;DHT22;49473;50.772;8.768;2023-08-06T02:58:14;14.70;99.90
2387;DHT22;49473;50.772;8.768;2023-08-06T03:00:41;14.70;99.90
2387;DHT22;49473;50.772;8.768;2023-08-06T03:03:10;14.70;99.90
2387;DHT22;49473;50.772;8.768;2023-08-06T03:05:36;14.70;99.90
2387;DHT22;49473;50.772;8.768;2023-08-06T03:08:03;14.70;99.90
2387;DHT22;49473;50.772;8.768;2023-08-06T03:10:30;14.70;99.90
2387;DHT22;49473;50.772;8.768;2023-08-06T03:12:57;14.70;99.90
2387;DHT22;49473;50.772;8.768;2023-08-06T03:15:24;14.80;99.90
2387;DHT22;49473;50.772;8.768;2023-08-06T03:17:50;14.80;99.90
2387;DHT22;49473;50.772;8.768;2023-08-06T03:20:18;14.80;99.90
2387;DHT22;49473;50.772;8.768;2023-08-06T03:22:45;14.80;99.90
2387;DHT22;49473;50.772;8.768;2023-08-06T03:25:12;14.80;99.90
2387;DHT22;49473;50.772;8.768;2023-08-06T03:27:39;14.80;99.90
2387;DHT22;49473;50.772;8.768;2023-08-06T03:30:07;14.70;99.90
2387;DHT22;49473;50.772;8.768;2023-08-06T03:32:34;14.80;99.90
2387;DHT22;49473;50.772;8.768;2023-08-06T03:35:00;14.80;99.90
2387;DHT22;49473;50.772;8.768;2023-08-06T03:37:29;14.80;99.90
2387;DHT22;49473;50.772;8.768;2023-08-06T03:39:56;14.90;99.90
2387;DHT22;49473;50.772;8.768;2023-08-06T03:42:23;14.90;99.90
2387;DHT22;49473;50.772;8.768;2023-08-06T03:44:50;14.90;99.90
2387;DHT22;49473;50.772;8.768;2023-08-06T03:47:17;15.00;99.90
2387;DHT22;49473;50.772;8.768;2023-08-06T03:49:43;14.90;99.90
2387;DHT22;49473;50.772;8.768;2023-08-06T03:52:10;14.90;99.90
2387;DHT22;49473;50.772;8.768;2023-08-06T03:54:38;14.90;99.90
2387;DHT22;49473;50.772;8.768;2023-08-06T03:57:05;15.00;99.90
2387;DHT22;49473;50.772;8.768;2023-08-06T03:59:32;15.00;99.90
2387;DHT22;49473;50.772;8.768;2023-08-06T04:01:59;15.00;99.90
2387;DHT22;49473;50.772;8.768;2023-08-06T04:04:26;15.00;99.90
2387;DHT22;49473;50.772;8.768;2023-08-06T04:06:52;14.90;99.90
2387;DHT22;49473;50.772;8.768;2023-08-06T04:09:19;15.00;99.90
2387;DHT22;49473;50.772;8.768;2023-08-06T04:11:48;15.00;99.90
2387;DHT22;49473;50.772;8.768;2023-08-06T04:14:15;15.00;99.90
2387;DHT22;49473;50.772;8.768;2023-08-06T04:16:42;15.00;99.90
2387;DHT22;49473;50.772;8.768;2023-08-06T04:19:09;15.00;99.90
2387;DHT22;49473;50.772;8.768;2023-08-06T04:21:36;14.90;99.90
2387;DHT22;49473;50.772;8.768;2023-08-06T04:24:03;14.90;99.90
2387;DHT22;49473;50.772;8.768;2023-08-06T04:26:30;14.90;99.90
2387;DHT22;49473;50.772;8.768;2023-08-06T04:28:58;14.90;99.90
2387;DHT22;49473;50.772;8.768;2023-08-06T04:31:25;14.90;99.90
2387;DHT22;49473;50.772;8.768;2023-08-06T04:33:52;14.90;99.90
2387;DHT22;49473;50.772;8.768;2023-08-06T04:36:18;14.90;99.90
2387;DHT22;49473;50.772;8.768;2023-08-06T04:38:45;15.00;99.90
2387;DHT22;49473;50.772;8.768;2023-08-06T04:41:13;15.00;99.90
2387;DHT22;49473;50.772;8.768;2023-08-06T04:43:39;15.00;99.90
2387;DHT22;49473;50.772;8.768;2023-08-06T04:46:07;15.00;99.90
2387;DHT22;49473;50.772;8.768;2023-08-06T04:48:34;15.00;99.90
2387;DHT22;49473;50.772;8.768;2023-08-06T04:51:01;15.00;99.90
2387;DHT22;49473;50.772;8.768;2023-08-06T04:53:28;15.10;99.90
2387;DHT22;49473;50.772;8.768;2023-08-06T04:55:54;15.10;99.90
2387;DHT22;49473;50.772;8.768;2023-08-06T04:58:21;15.10;99.90
2387;DHT22;49473;50.772;8.768;2023-08-06T05:00:48;15.10;99.90
2387;DHT22;49473;50.772;8.768;2023-08-06T05:03:17;15.10;99.90
2387;DHT22;49473;50.772;8.768;2023-08-06T05:05:43;15.20;99.90
2387;DHT22;49473;50.772;8.768;2023-08-06T05:08:14;15.20;99.90
2387;DHT22;49473;50.772;8.768;2023-08-06T05:10:44;15.20;99.90
2387;DHT22;49473;50.772;8.768;2023-08-06T05:13:11;15.30;99.90
2387;DHT22;49473;50.772;8.768;2023-08-06T05:15:39;15.30;99.90
2387;DHT22;49473;50.772;8.768;2023-08-06T05:18:07;15.40;99.90
2387;DHT22;49473;50.772;8.768;2023-08-06T05:20:37;15.40;99.90
2387;DHT22;49473;50.772;8.768;2023-08-06T05:23:04;15.70;99.90
2387;DHT22;49473;50.772;8.768;2023-08-06T05:25:31;15.90;99.90
2387;DHT22;49473;50.772;8.768;2023-08-06T05:27:58;16.10;99.90
2387;DHT22;49473;50.772;8.768;2023-08-06T05:30:25;16.20;99.90
2387;DHT22;49473;50.772;8.768;2023-08-06T05:32:52;16.00;99.90
2387;DHT22;49473;50.772;8.768;2023-08-06T05:35:19;16.00;99.90
2387;DHT22;49473;50.772;8.768;2023-08-06T05:37:47;15.90;99.90
2387;DHT22;49473;50.772;8.768;2023-08-06T05:40:14;15.70;99.90
2387;DHT22;49473;50.772;8.768;2023-08-06T05:42:41;15.60;99.90
2387;DHT22;49473;50.772;8.768;2023-08-06T05:45:09;15.50;99.90
2387;DHT22;49473;50.772;8.768;2023-08-06T05:47:36;15.60;99.90
2387;DHT22;49473;50.772;8.768;2023-08-06T05:50:03;15.70;99.90
2387;DHT22;49473;50.772;8.768;2023-08-06T05:52:30;15.60;99.90
2387;DHT22;49473;50.772;8.768;2023-08-06T05:54:58;15.80;99.90
2387;DHT22;49473;50.772;8.768;2023-08-06T05:57:25;15.90;99.90
2387;DHT22;49473;50.772;8.768;2023-08-06T05:59:51;15.90;99.90
2387;DHT22;49473;50.772;8.768;2023-08-06T06:02:18;16.00;99.90
2387;DHT22;49473;50.772;8.768;2023-08-06T06:04:45;16.10;99.90
2387;DHT22;49473;50.772;8.768;2023-08-06T06:07:12;16.10;99.90
2387;DHT22;49473;50.772;8.768;2023-08-06T06:09:39;16.20;99.90
2387;DHT22;49473;50.772;8.768;2023-08-06T06:12:08;16.30;99.90
2387;DHT22;49473;50.772;8.768;2023-08-06T06:14:35;16.40;99.90
2387;DHT22;49473;50.772;8.768;2023-08-06T06:17:01;16.30;99.90
2387;DHT22;49473;50.772;8.768;2023-08-06T06:19:28;16.30;99.90
2387;DHT22;49473;50.772;8.768;2023-08-06T06:21:55;16.30;99.90
2387;DHT22;49473;50.772;8.768;2023-08-06T06:24:23;16.40;99.90
2387;DHT22;49473;50.772;8.768;2023-08-06T06:26:50;16.50;99.90
2387;DHT22;49473;50.772;8.768;2023-08-06T06:29:18;16.70;99.90
2387;DHT22;49473;50.772;8.768;2023-08-06T06:31:44;16.90;99.90
2387;DHT22;49473;50.772;8.768;2023-08-06T06:34:11;17.00;99.90
2387;DHT22;49473;50.772;8.768;2023-08-06T06:36:38;16.90;99.90
2387;DHT22;49473;50.772;8.768;2023-08-06T06:39:05;17.00;99.90
2387;DHT22;49473;50.772;8.768;2023-08-06T06:41:33;16.90;99.90
2387;DHT22;49473;50.772;8.768;2023-08-06T06:44:00;17.10;99.90
2387;DHT22;49473;50.772;8.768;2023-08-06T06:46:28;17.00;99.90
2387;DHT22;49473;50.772;8.768;2023-08-06T06:48:55;17.00;99.90
2387;DHT22;49473;50.772;8.768;2023-08-06T06:51:22;17.00;99.90
2387;DHT22;49473;50.772;8.768;2023-08-06T06:53:48;17.00;99.90
2387;DHT22;49473;50.772;8.768;2023-08-06T06:56:15;16.80;99.90
2387;DHT22;49473;50.772;8.768;2023-08-06T06:58:42;16.60;99.90
2387;DHT22;49473;50.772;8.768;2023-08-06T07:01:09;16.50;99.90
2387;DHT22;49473;50.772;8.768;2023-08-06T07:03:38;16.70;99.90
2387;DHT22;49473;50.772;8.768;2023-08-06T07:06:05;16.70;99.90
2387;DHT22;49473;50.772;8.768;2023-08-06T07:08:32;16.70;99.90
2387;DHT22;49473;50.772;8.768;2023-08-06T07:11:00;16.90;99.90
2387;DHT22;49473;50.772;8.768;2023-08-06T07:13:28;17.10;99.90
2387;DHT22;49473;50.772;8.768;2023-08-06T07:15:54;17.40;99.90
2387;DHT22;49473;50.772;8.768;2023-08-06T07:18:21;17.90;99.90
2387;DHT22;49473;50.772;8.768;2023-08-06T07:20:50;18.50;99.90
2387;DHT22;49473;50.772;8.768;2023-08-06T07:23:17;19.60;99.90
2387;DHT22;49473;50.772;8.768;2023-08-06T07:25:43;21.10;99.90
2387;DHT22;49473;50.772;8.768;2023-08-06T07:28:10;22.10;99.90
2387;DHT22;49473;50.772;8.768;2023-08-06T07:30:38;22.30;99.90
2387;DHT22;49473;50.772;8.768;2023-08-06T07:33:05;21.90;99.90
2387;DHT22;49473;50.772;8.768;2023-08-06T07:35:32;21.60;99.90
2387;DHT22;49473;50.772;8.768;2023-08-06T07:38:01;21.30;99.90
2387;DHT22;49473;50.772;8.768;2023-08-06T07:40:27;20.50;99.90
2387;DHT22;49473;50.772;8.768;2023-08-06T07:42:54;20.10;99.90
2387;DHT22;49473;50.772;8.768;2023-08-06T07:45:21;20.00;99.90
2387;DHT22;49473;50.772;8.768;2023-08-06T07:47:48;19.30;99.90
2387;DHT22;49473;50.772;8.768;2023-08-06T07:50:14;19.00;99.90
2387;DHT22;49473;50.772;8.768;2023-08-06T07:52:41;18.60;99.90
2387;DHT22;49473;50.772;8.768;2023-08-06T07:55:09;18.20;99.90
2387;DHT22;49473;50.772;8.768;2023-08-06T07:57:36;18.00;99.90
2387;DHT22;49473;50.772;8.768;2023-08-06T08:00:04;17.80;99.90
2387;DHT22;49473;50.772;8.768;2023-08-06T08:02:31;17.60;99.90
2387;DHT22;49473;50.772;8.768;2023-08-06T08:04:58;17.50;99.90
2387;DHT22;49473;50.772;8.768;2023-08-06T08:07:25;17.40;99.90
2387;DHT22;49473;50.772;8.768;2023-08-06T08:09:54;17.40;99.90
2387;DHT22;49473;50.772;8.768;2023-08-06T08:12:22;17.50;99.90
2387;DHT22;49473;50.772;8.768;2023-08-06T08:14:49;17.60;99.90
2387;DHT22;49473;50.772;8.768;2023-08-06T08:17:15;17.70;99.90
2387;DHT22;49473;50.772;8.768;2023-08-06T08:19:43;17.80;99.90
2387;DHT22;49473;50.772;8.768;2023-08-06T08:22:10;17.90;99.90
2387;DHT22;49473;50.772;8.768;2023-08-06T08:24:37;17.90;99.90
2387;DHT22;49473;50.772;8.768;2023-08-06T08:27:04;17.90;99.90
2387;DHT22;49473;50.772;8.768;2023-08-06T08:29:32;18.00;99.90
2387;DHT22;49473;50.772;8.768;2023-08-06T08:31:59;18.00;99.90
2387;DHT22;49473;50.772;8.768;2023-08-06T08:34:26;18.10;99.90
2387;DHT22;49473;50.772;8.768;2023-08-06T08:36:52;18.20;99.90
2387;DHT22;49473;50.772;8.768;2023-08-06T08:39:19;18.20;99.90
2387;DHT22;49473;50.772;8.768;2023-08-06T08:41:46;18.20;99.90
2387;DHT22;49473;50.772;8.768;2023-08-06T08:44:13;18.10;99.90
2387;DHT22;49473;50.772;8.768;2023-08-06T08:46:44;17.90;99.90
2387;DHT22;49473;50.772;8.768;2023-08-06T08:49:13;17.80;99.90
2387;DHT22;49473;50.772;8.768;2023-08-06T08:51:39;17.80;99.90
2387;DHT22;49473;50.772;8.768;2023-08-06T08:54:07;17.70;99.90
2387;DHT22;49473;50.772;8.768;2023-08-06T08:56:35;17.90;99.90
2387;DHT22;49473;50.772;8.768;2023-08-06T08:59:02;18.10;99.90
2387;DHT22;49473;50.772;8.768;2023-08-06T09:01:29;18.30;99.90
2387;DHT22;49473;50.772;8.768;2023-08-06T09:03:57;18.40;99.90
2387;DHT22;49473;50.772;8.768;2023-08-06T09:06:26;18.70;99.90
2387;DHT22;49473;50.772;8.768;2023-08-06T09:09:01;19.30;99.90
2387;DHT22;49473;50.772;8.768;2023-08-06T09:11:33;19.90;99.90
2387;DHT22;49473;50.772;8.768;2023-08-06T09:14:06;20.30;99.90
2387;DHT22;49473;50.772;8.768;2023-08-06T09:16:34;21.90;99.90
2387;DHT22;49473;50.772;8.768;2023-08-06T09:19:08;23.80;99.90
2387;DHT22;49473;50.772;8.768;2023-08-06T09:21:37;24.80;99.90
2387;DHT22;49473;50.772;8.768;2023-08-06T09:24:07;26.50;99.90
2387;DHT22;49473;50.772;8.768;2023-08-06T09:26:35;27.30;99.90
2387;DHT22;49473;50.772;8.768;2023-08-06T09:29:05;27.70;99.90
2387;DHT22;49473;50.772;8.768;2023-08-06T09:31:40;28.20;99.90
2387;DHT22;49473;50.772;8.768;2023-08-06T09:34:14;26.90;99.90
2387;DHT22;49473;50.772;8.768;2023-08-06T09:36:41;26.10;99.90
2387;DHT22;49473;50.772;8.768;2023-08-06T09:39:13;27.20;99.90
2387;DHT22;49473;50.772;8.768;2023-08-06T09:41:39;28.50;99.90
2387;DHT22;49473;50.772;8.768;2023-08-06T09:44:17;28.70;99.90
2387;DHT22;49473;50.772;8.768;2023-08-06T09:46:47;28.20;99.90
2387;DHT22;49473;50.772;8.768;2023-08-06T09:49:16;28.00;99.90
2387;DHT22;49473;50.772;8.768;2023-08-06T09:51:42;27.00;99.90
2387;DHT22;49473;50.772;8.768;2023-08-06T09:54:11;26.40;99.90
2387;DHT22;49473;50.772;8.768;2023-08-06T09:56:39;25.50;99.90
2387;DHT22;49473;50.772;8.768;2023-08-06T09:59:06;24.80;99.90
2387;DHT22;49473;50.772;8.768;2023-08-06T10:01:34;24.50;99.90
2387;DHT22;49473;50.772;8.768;2023-08-06T10:04:03;24.10;99.90
2387;DHT22;49473;50.772;8.768;2023-08-06T10:06:34;23.90;99.90
2387;DHT22;49473;50.772;8.768;2023-08-06T10:09:01;23.90;99.90
2387;DHT22;49473;50.772;8.768;2023-08-06T10:11:28;23.80;99.90
2387;DHT22;49473;50.772;8.768;2023-08-06T10:13:58;23.40;99.90
2387;DHT22;49473;50.772;8.768;2023-08-06T10:16:27;22.80;99.90
2387;DHT22;49473;50.772;8.768;2023-08-06T10:18:54;22.40;99.90
2387;DHT22;49473;50.772;8.768;2023-08-06T10:21:23;21.80;99.90
2387;DHT22;49473;50.772;8.768;2023-08-06T10:23:55;21.20;99.90
2387;DHT22;49473;50.772;8.768;2023-08-06T10:26:25;20.90;99.90
2387;DHT22;49473;50.772;8.768;2023-08-06T10:28:53;20.80;99.90
2387;DHT22;49473;50.772;8.768;2023-08-06T10:31:19;21.00;99.90
2387;DHT22;49473;50.772;8.768;2023-08-06T10:33:47;21.10;99.90
2387;DHT22;49473;50.772;8.768;2023-08-06T10:36:14;22.90;99.90
2387;DHT22;49473;50.772;8.768;2023-08-06T10:38:45;24.70;99.90
2387;DHT22;49473;50.772;8.768;2023-08-06T10:41:21;24.70;99.90
2387;DHT22;49473;50.772;8.768;2023-08-06T10:43:49;23.80;99.90
2387;DHT22;49473;50.772;8.768;2023-08-06T10:46:23;22.30;99.90
2387;DHT22;49473;50.772;8.768;2023-08-06T10:48:53;21.40;99.90
2387;DHT22;49473;50.772;8.768;2023-08-06T10:51:19;20.80;99.90
2387;DHT22;49473;50.772;8.768;2023-08-06T10:53:48;19.90;99.90
2387;DHT22;49473;50.772;8.768;2023-08-06T10:56:17;19.70;99.90
2387;DHT22;49473;50.772;8.768;2023-08-06T10:58:45;19.40;99.90
2387;DHT22;49473;50.772;8.768;2023-08-06T11:01:12;19.30;99.90
2387;DHT22;49473;50.772;8.768;2023-08-06T11:03:39;19.10;99.90
2387;DHT22;49473;50.772;8.768;2023-08-06T11:06:07;18.70;99.90
2387;DHT22;49473;50.772;8.768;2023-08-06T11:08:35;18.50;99.90
2387;DHT22;49473;50.772;8.768;2023-08-06T11:11:08;18.50;99.90
2387;DHT22;49473;50.772;8.768;2023-08-06T11:13:38;18.40;99.90
2387;DHT22;49473;50.772;8.768;2023-08-06T11:16:04;18.30;99.90
2387;DHT22;49473;50.772;8.768;2023-08-06T11:18:32;18.20;99.90
2387;DHT22;49473;50.772;8.768;2023-08-06T11:20:59;18.10;99.90
2387;DHT22;49473;50.772;8.768;2023-08-06T11:23:26;18.00;99.90
2387;DHT22;49473;50.772;8.768;2023-08-06T11:25:54;18.00;99.90
2387;DHT22;49473;50.772;8.768;2023-08-06T11:28:21;17.90;99.90
2387;DHT22;49473;50.772;8.768;2023-08-06T11:30:49;17.70;99.90
2387;DHT22;49473;50.772;8.768;2023-08-06T11:33:20;17.70;99.90
2387;DHT22;49473;50.772;8.768;2023-08-06T11:35:47;17.60;99.90
2387;DHT22;49473;50.772;8.768;2023-08-06T11:38:14;17.50;99.90
2387;DHT22;49473;50.772;8.768;2023-08-06T11:40:43;17.50;99.90
2387;DHT22;49473;50.772;8.768;2023-08-06T11:43:10;17.40;99.90
2387;DHT22;49473;50.772;8.768;2023-08-06T11:45:38;17.50;99.90
2387;DHT22;49473;50.772;8.768;2023-08-06T11:48:06;17.50;99.90
2387;DHT22;49473;50.772;8.768;2023-08-06T11:50:36;17.60;99.90
2387;DHT22;49473;50.772;8.768;2023-08-06T11:53:04;17.60;99.90
2387;DHT22;49473;50.772;8.768;2023-08-06T11:55:31;17.50;99.90
2387;DHT22;49473;50.772;8.768;2023-08-06T11:57:58;17.70;99.90
2387;DHT22;49473;50.772;8.768;2023-08-06T12:00:25;18.00;99.90
2387;DHT22;49473;50.772;8.768;2023-08-06T12:02:52;18.20;99.90
2387;DHT22;49473;50.772;8.768;2023-08-06T12:05:22;18.50;99.90
2387;DHT22;49473;50.772;8.768;2023-08-06T12:07:50;19.00;99.90
2387;DHT22;49473;50.772;8.768;2023-08-06T12:10:19;19.60;99.90
2387;DHT22;49473;50.772;8.768;2023-08-06T12:12:46;20.40;99.90
2387;DHT22;49473;50.772;8.768;2023-08-06T12:15:14;21.60;99.90
2387;DHT22;49473;50.772;8.768;2023-08-06T12:17:41;23.20;99.90
2387;DHT22;49473;50.772;8.768;2023-08-06T12:20:08;25.20;99.90
2387;DHT22;49473;50.772;8.768;2023-08-06T12:22:37;27.60;99.90
2387;DHT22;49473;50.772;8.768;2023-08-06T12:25:07;28.30;99.90
2387;DHT22;49473;50.772;8.768;2023-08-06T12:27:34;28.10;99.90
2387;DHT22;49473;50.772;8.768;2023-08-06T12:30:01;27.90;99.90
2387;DHT22;49473;50.772;8.768;2023-08-06T12:32:29;26.60;99.90
2387;DHT22;49473;50.772;8.768;2023-08-06T12:34:56;25.90;99.90
2387;DHT22;49473;50.772;8.768;2023-08-06T12:37:24;25.40;99.90
2387;DHT22;49473;50.772;8.768;2023-08-06T12:39:53;24.40;99.90
2387;DHT22;49473;50.772;8.768;2023-08-06T12:42:19;23.70;99.90
2387;DHT22;49473;50.772;8.768;2023-08-06T12:44:48;23.10;99.90
2387;DHT22;49473;50.772;8.768;2023-08-06T12:47:15;22.50;99.90
2387;DHT22;49473;50.772;8.768;2023-08-06T12:49:42;21.80;99.90
2387;DHT22;49473;50.772;8.768;2023-08-06T12:52:09;21.30;99.90
2387;DHT22;49473;50.772;8.768;2023-08-06T12:54:38;20.90;99.90
2387;DHT22;49473;50.772;8.768;2023-08-06T12:57:06;20.30;99.90
2387;DHT22;49473;50.772;8.768;2023-08-06T12:59:33;19.90;99.90
2387;DHT22;49473;50.772;8.768;2023-08-06T13:02:02;19.70;99.90
2387;DHT22;49473;50.772;8.768;2023-08-06T13:04:29;19.40;99.90
2387;DHT22;49473;50.772;8.768;2023-08-06T13:06:55;19.20;99.90
2387;DHT22;49473;50.772;8.768;2023-08-06T13:09:22;19.10;99.90
2387;DHT22;49473;50.772;8.768;2023-08-06T13:11:50;19.20;99.90
2387;DHT22;49473;50.772;8.768;2023-08-06T13:14:18;19.10;99.90
2387;DHT22;49473;50.772;8.768;2023-08-06T13:16:45;18.80;99.90
2387;DHT22;49473;50.772;8.768;2023-08-06T13:19:12;18.40;99.90
2387;DHT22;49473;50.772;8.768;2023-08-06T13:21:59;18.10;99.90
2387;DHT22;49473;50.772;8.768;2023-08-06T13:24:27;17.90;99.90
2387;DHT22;49473;50.772;8.768;2023-08-06T13:26:54;17.70;99.90
2387;DHT22;49473;50.772;8.768;2023-08-06T13:29:22;17.60;99.90
2387;DHT22;49473;50.772;8.768;2023-08-06T13:31:49;17.70;99.90
2387;DHT22;49473;50.772;8.768;2023-08-06T13:34:15;17.70;99.90
2387;DHT22;49473;50.772;8.768;2023-08-06T13:36:43;17.80;99.90
2387;DHT22;49473;50.772;8.768;2023-08-06T13:39:10;17.90;99.90
2387;DHT22;49473;50.772;8.768;2023-08-06T13:41:37;18.30;99.90
2387;DHT22;49473;50.772;8.768;2023-08-06T13:44:05;18.50;99.90
2387;DHT22;49473;50.772;8.768;2023-08-06T13:46:33;18.70;99.90
2387;DHT22;49473;50.772;8.768;2023-08-06T13:49:00;18.80;99.90
2387;DHT22;49473;50.772;8.768;2023-08-06T13:51:26;18.40;99.90
2387;DHT22;49473;50.772;8.768;2023-08-06T13:53:54;18.20;99.90
2387;DHT22;49473;50.772;8.768;2023-08-06T13:56:22;18.20;99.90
2387;DHT22;49473;50.772;8.768;2023-08-06T13:58:49;18.20;99.90
2387;DHT22;49473;50.772;8.768;2023-08-06T14:01:17;18.00;99.90
2387;DHT22;49473;50.772;8.768;2023-08-06T14:03:45;18.00;99.90
2387;DHT22;49473;50.772;8.768;2023-08-06T14:06:12;17.80;99.90
2387;DHT22;49473;50.772;8.768;2023-08-06T14:08:39;17.50;99.90
2387;DHT22;49473;50.772;8.768;2023-08-06T14:11:06;17.30;99.90
2387;DHT22;49473;50.772;8.768;2023-08-06T14:13:33;17.10;99.90
2387;DHT22;49473;50.772;8.768;2023-08-06T14:16:00;17.10;99.90
2387;DHT22;49473;50.772;8.768;2023-08-06T14:18:27;17.10;99.90
2387;DHT22;49473;50.772;8.768;2023-08-06T14:20:55;17.10;99.90
2387;DHT22;49473;50.772;8.768;2023-08-06T14:23:22;16.90;99.90
2387;DHT22;49473;50.772;8.768;2023-08-06T14:25:49;16.90;99.90
2387;DHT22;49473;50.772;8.768;2023-08-06T14:28:16;16.80;99.90
2387;DHT22;49473;50.772;8.768;2023-08-06T14:30:44;16.90;99.90
2387;DHT22;49473;50.772;8.768;2023-08-06T14:33:10;16.90;99.90
2387;DHT22;49473;50.772;8.768;2023-08-06T14:35:37;16.80;99.90
2387;DHT22;49473;50.772;8.768;2023-08-06T14:38:05;16.70;99.90
2387;DHT22;49473;50.772;8.768;2023-08-06T14:40:33;16.80;99.90
2387;DHT22;49473;50.772;8.768;2023-08-06T14:43:03;16.70;99.90
2387;DHT22;49473;50.772;8.768;2023-08-06T14:45:30;16.80;99.90
2387;DHT22;49473;50.772;8.768;2023-08-06T14:47:56;16.80;99.90
2387;DHT22;49473;50.772;8.768;2023-08-06T14:50:23;16.70;99.90
2387;DHT22;49473;50.772;8.768;2023-08-06T14:52:50;16.70;99.90
2387;DHT22;49473;50.772;8.768;2023-08-06T14:55:25;16.80;99.90
2387;DHT22;49473;50.772;8.768;2023-08-06T14:57:52;17.00;99.90
2387;DHT22;49473;50.772;8.768;2023-08-06T15:00:19;17.00;99.90
2387;DHT22;49473;50.772;8.768;2023-08-06T15:02:46;16.90;99.90
2387;DHT22;49473;50.772;8.768;2023-08-06T15:05:13;17.00;99.90
2387;DHT22;49473;50.772;8.768;2023-08-06T15:07:40;16.90;99.90
2387;DHT22;49473;50.772;8.768;2023-08-06T15:10:07;16.90;99.90
2387;DHT22;49473;50.772;8.768;2023-08-06T15:12:36;16.90;99.90
2387;DHT22;49473;50.772;8.768;2023-08-06T15:15:06;16.80;99.90
2387;DHT22;49473;50.772;8.768;2023-08-06T15:17:33;16.70;99.90
2387;DHT22;49473;50.772;8.768;2023-08-06T15:20:00;16.50;99.90
2387;DHT22;49473;50.772;8.768;2023-08-06T15:22:27;16.40;99.90
2387;DHT22;49473;50.772;8.768;2023-08-06T15:24:54;16.30;99.90
2387;DHT22;49473;50.772;8.768;2023-08-06T15:27:21;16.30;99.90
2387;DHT22;49473;50.772;8.768;2023-08-06T15:29:49;16.10;99.90
2387;DHT22;49473;50.772;8.768;2023-08-06T15:32:16;16.00;99.90
2387;DHT22;49473;50.772;8.768;2023-08-06T15:34:43;15.90;99.90
2387;DHT22;49473;50.772;8.768;2023-08-06T15:37:09;15.80;99.90
2387;DHT22;49473;50.772;8.768;2023-08-06T15:39:36;15.70;99.90
2387;DHT22;49473;50.772;8.768;2023-08-06T15:42:04;15.70;99.90
2387;DHT22;49473;50.772;8.768;2023-08-06T15:44:31;15.70;99.90
2387;DHT22;49473;50.772;8.768;2023-08-06T15:46:59;15.70;99.90